createdAt,value
2022-11-15T00:01:21.754Z,8.40
2022-11-15T00:02:49.266Z,8.45
2022-11-15T00:05:35.093Z,8.98
2022-11-15T00:07:03.514Z,8.15
2022-11-15T00:09:49.309Z,8.17
2022-11-15T00:11:16.198Z,7.55
2022-11-15T00:12:44.551Z,9.27
2022-11-15T00:14:13.122Z,7.97
2022-11-15T00:16:57.551Z,8.60
2022-11-15T00:18:25.196Z,8.18
2022-11-15T00:19:53.610Z,8.55
2022-11-15T00:22:37.451Z,8.57
2022-11-15T00:24:06.766Z,8.58
2022-11-15T00:26:50.617Z,9.55
2022-11-15T00:28:18.543Z,8.50
2022-11-15T00:29:46.603Z,8.55
2022-11-15T00:31:15.919Z,8.52
2022-11-15T00:32:44.804Z,8.42
2022-11-15T00:35:28.824Z,8.90
2022-11-15T00:36:57.261Z,8.93
2022-11-15T00:39:40.002Z,8.73
2022-11-15T00:41:09.982Z,9.83
2022-11-15T00:42:38.291Z,9.48
2022-11-15T00:45:21.213Z,9.92
2022-11-15T00:48:06.173Z,9.50
2022-11-15T00:50:50.678Z,9.50
2022-11-15T00:52:18.856Z,9.35
2022-11-15T00:55:01.393Z,9.15
2022-11-15T00:56:29.527Z,8.07
2022-11-15T00:59:12.370Z,8.58
2022-11-15T01:00:40.000Z,8.28
2022-11-15T01:03:23.994Z,7.55
2022-11-15T01:04:52.296Z,7.18
2022-11-15T01:06:21.192Z,8.05
2022-11-15T01:09:10.927Z,8.68
2022-11-15T01:11:54.355Z,8.84
2022-11-15T01:13:22.204Z,7.62
2022-11-15T01:14:50.753Z,8.18
2022-11-15T01:16:19.942Z,8.35
2022-11-15T01:17:47.823Z,8.78
2022-11-15T01:20:31.298Z,7.95
2022-11-15T01:23:13.019Z,7.75
2022-11-15T01:24:40.715Z,7.48
2022-11-15T01:27:27.987Z,7.96
2022-11-15T01:28:54.812Z,7.68
2022-11-15T01:30:22.438Z,7.40
2022-11-15T01:31:51.673Z,7.68
2022-11-15T01:33:20.220Z,6.85
2022-11-15T01:34:47.447Z,8.20
2022-11-15T01:37:34.450Z,7.50
2022-11-15T01:40:17.522Z,7.77
2022-11-15T01:41:46.289Z,7.60
2022-11-15T01:46:22.598Z,7.62
2022-11-15T01:47:54.466Z,6.93
2022-11-15T01:49:25.436Z,6.84
2022-11-15T01:50:53.883Z,7.17
2022-11-15T01:52:25.047Z,7.75
2022-11-15T01:56:49.714Z,7.50
2022-11-15T01:58:17.136Z,7.22
2022-11-15T01:59:46.711Z,7.18
2022-11-15T02:02:31.951Z,6.77
2022-11-15T02:05:22.542Z,7.72
2022-11-15T02:06:51.110Z,7.50
2022-11-15T02:08:21.435Z,7.23
2022-11-15T02:09:50.427Z,7.00
2022-11-15T02:11:19.016Z,7.30
2022-11-15T02:14:06.051Z,7.50
2022-11-15T02:17:17.454Z,8.35
2022-11-15T02:18:51.185Z,7.13
2022-11-15T02:20:42.263Z,7.73
2022-11-15T02:22:33.050Z,7.60
2022-11-15T02:26:10.183Z,7.05
2022-11-15T02:29:30.267Z,7.13
2022-11-15T02:32:55.991Z,7.42
2022-11-15T02:36:05.222Z,7.20
2022-11-15T02:39:01.988Z,6.88
2022-11-15T02:40:34.063Z,6.97
2022-11-15T02:43:48.643Z,7.17
2022-11-15T02:47:01.096Z,7.98
2022-11-15T02:51:14.410Z,7.58
2022-11-15T02:52:43.503Z,7.57
2022-11-15T02:55:36.445Z,8.62
2022-11-15T03:00:07.786Z,8.15
2022-11-15T03:03:07.209Z,8.12
2022-11-15T03:08:45.055Z,9.03
2022-11-15T03:11:45.746Z,8.00
2022-11-15T03:13:29.077Z,7.93
2022-11-15T03:16:39.682Z,8.22
2022-11-15T03:20:51.441Z,9.10
2022-11-15T03:23:40.095Z,8.05
2022-11-15T03:26:28.147Z,8.78
2022-11-15T03:28:00.166Z,7.62
2022-11-15T03:30:50.488Z,8.28
2022-11-15T03:33:37.412Z,8.48
2022-11-15T03:36:29.855Z,8.80
2022-11-15T03:39:39.038Z,8.37
2022-11-15T03:42:46.194Z,7.95
2022-11-15T03:45:44.156Z,8.30
2022-11-15T03:48:42.440Z,7.88
2022-11-15T03:50:17.188Z,8.80
2022-11-15T03:51:45.792Z,7.90
2022-11-15T03:54:28.888Z,7.97
2022-11-15T03:55:56.297Z,8.27
2022-11-15T03:58:39.402Z,8.32
2022-11-15T04:01:24.677Z,8.77
2022-11-15T04:04:09.221Z,8.80
2022-11-15T04:05:37.461Z,8.10
2022-11-15T04:07:15.577Z,8.00
2022-11-15T04:08:43.745Z,7.98
2022-11-15T04:10:12.510Z,8.27
2022-11-15T04:12:55.480Z,8.75
2022-11-15T04:15:56.955Z,8.30
2022-11-15T04:18:39.228Z,8.80
2022-11-15T04:22:03.629Z,8.30
2022-11-15T04:25:06.410Z,8.95
2022-11-15T04:27:50.655Z,8.25
2022-11-15T04:29:40.265Z,8.80
2022-11-15T04:32:24.139Z,8.17
2022-11-15T04:35:07.707Z,9.55
2022-11-15T04:38:12.320Z,8.72
2022-11-15T04:41:00.107Z,9.10
2022-11-15T04:42:28.273Z,9.12
2022-11-15T04:43:56.175Z,8.65
2022-11-15T04:45:24.763Z,9.47
2022-11-15T04:48:38.645Z,9.02
2022-11-15T04:51:22.083Z,9.02
2022-11-15T04:54:09.997Z,9.07
2022-11-15T04:55:38.903Z,8.64
2022-11-15T04:57:07.221Z,8.70
2022-11-15T04:59:49.804Z,8.78
2022-11-15T05:02:35.216Z,8.40
2022-11-15T05:05:39.022Z,7.72
2022-11-15T05:08:23.065Z,7.80
2022-11-15T05:11:04.974Z,8.67
2022-11-15T05:13:48.606Z,9.45
2022-11-15T05:15:17.400Z,9.60
2022-11-15T05:18:04.500Z,11.15
2022-11-15T05:19:32.132Z,11.18
2022-11-15T05:22:23.931Z,11.32
2022-11-15T05:25:09.246Z,13.82
2022-11-15T05:26:38.281Z,13.62
2022-11-15T05:28:06.495Z,12.80
2022-11-15T05:30:49.379Z,12.77
2022-11-15T05:33:36.215Z,12.75
2022-11-15T05:36:34.059Z,12.62
2022-11-15T05:39:19.060Z,13.10
2022-11-15T05:42:08.865Z,12.97
2022-11-15T05:43:40.114Z,12.72
2022-11-15T05:48:03.873Z,14.30
2022-11-15T05:50:51.140Z,29.60
2022-11-15T05:52:23.174Z,18.23
2022-11-15T05:55:10.680Z,14.70
2022-11-15T05:57:55.219Z,13.95
2022-11-15T06:00:40.026Z,12.95
2022-11-15T06:02:09.240Z,14.38
2022-11-15T06:04:55.471Z,14.52
2022-11-15T06:07:37.254Z,13.88
2022-11-15T06:10:19.833Z,13.65
2022-11-15T06:13:05.182Z,13.92
2022-11-15T06:15:47.087Z,14.65
2022-11-15T06:18:29.034Z,14.95
2022-11-15T06:21:12.758Z,15.27
2022-11-15T06:22:40.473Z,15.18
2022-11-15T06:25:24.252Z,14.05
2022-11-15T06:28:08.500Z,13.58
2022-11-15T06:30:53.313Z,16.50
2022-11-15T06:32:20.095Z,19.05
2022-11-15T06:35:06.066Z,14.42
2022-11-15T06:37:53.509Z,16.95
2022-11-15T06:40:39.234Z,15.78
2022-11-15T06:43:23.238Z,15.13
2022-11-15T06:44:58.010Z,15.60
2022-11-15T06:47:48.275Z,14.98
2022-11-15T06:50:30.209Z,15.35
2022-11-15T06:51:57.082Z,14.67
2022-11-15T06:54:39.811Z,15.40
2022-11-15T06:57:24.064Z,15.73
2022-11-15T07:00:08.467Z,15.13
2022-11-15T07:01:36.917Z,14.98
2022-11-15T07:04:19.762Z,15.47
2022-11-15T07:07:11.363Z,15.47
2022-11-15T07:08:39.045Z,16.32
2022-11-15T07:10:09.224Z,16.67
2022-11-15T07:11:36.730Z,14.90
2022-11-15T07:14:20.872Z,15.12
2022-11-15T07:17:07.107Z,14.93
2022-11-15T07:20:04.450Z,15.20
2022-11-15T07:21:34.481Z,14.95
2022-11-15T07:24:25.960Z,14.22
2022-11-15T07:27:09.185Z,14.93
2022-11-15T07:28:37.814Z,14.05
2022-11-15T07:30:09.763Z,14.48
2022-11-15T07:33:01.390Z,13.60
2022-11-15T07:35:43.618Z,13.80
2022-11-15T07:37:12.006Z,14.15
2022-11-15T07:39:54.819Z,13.12
2022-11-15T07:41:22.536Z,12.90
2022-11-15T07:44:12.508Z,11.87
2022-11-15T07:47:01.368Z,10.50
2022-11-15T07:48:42.260Z,10.73
2022-11-15T07:49:58.934Z,11.65
2022-11-15T07:51:26.263Z,11.17
2022-11-15T07:52:57.490Z,10.77
2022-11-15T07:55:42.472Z,10.70
2022-11-15T07:57:11.411Z,11.73
2022-11-15T07:58:38.960Z,10.97
2022-11-15T08:01:23.631Z,10.88
2022-11-15T08:04:08.034Z,11.30
2022-11-15T08:06:52.771Z,19.83
2022-11-15T08:09:35.907Z,22.05
2022-11-15T08:11:04.258Z,14.73
2022-11-15T08:12:31.434Z,13.23
2022-11-15T08:15:15.481Z,11.75
2022-11-15T08:17:59.465Z,11.40
2022-11-15T08:20:43.631Z,9.70
2022-11-15T08:23:28.146Z,10.57
2022-11-15T08:24:56.331Z,9.85
2022-11-15T08:26:23.844Z,11.53
2022-11-15T08:29:09.265Z,9.13
2022-11-15T08:30:42.635Z,9.60
2022-11-15T08:32:10.312Z,9.70
2022-11-15T08:33:37.613Z,9.82
2022-11-15T08:36:23.224Z,10.03
2022-11-15T08:39:06.960Z,9.55
2022-11-15T08:41:49.133Z,10.00
2022-11-15T08:44:51.761Z,9.85
2022-11-15T08:47:35.673Z,11.57
2022-11-15T08:50:18.987Z,12.80
2022-11-15T08:53:21.622Z,12.43
2022-11-15T08:56:06.376Z,13.10
2022-11-15T08:57:34.009Z,13.15
2022-11-15T08:59:01.544Z,13.62
2022-11-15T09:02:05.454Z,13.08
2022-11-15T09:03:33.389Z,13.35
2022-11-15T09:06:16.277Z,12.60
2022-11-15T09:07:44.111Z,13.33
2022-11-15T09:09:11.549Z,14.22
2022-11-15T09:10:39.819Z,11.40
2022-11-15T09:13:23.442Z,11.97
2022-11-15T09:16:06.369Z,12.55
2022-11-15T09:18:49.297Z,13.50
2022-11-15T09:21:34.406Z,12.93
2022-11-15T09:24:23.912Z,12.30
2022-11-15T09:27:06.802Z,12.57
2022-11-15T09:29:50.146Z,12.90
2022-11-15T09:31:21.003Z,13.32
2022-11-15T09:34:02.525Z,13.97
2022-11-15T09:36:45.621Z,14.37
2022-11-15T09:39:29.221Z,14.58
2022-11-15T09:44:35.799Z,14.52
2022-11-15T09:47:39.818Z,15.06
2022-11-15T09:49:07.966Z,21.75
2022-11-15T09:50:50.298Z,17.12
2022-11-15T09:52:00.541Z,15.00
2022-11-15T09:53:13.679Z,16.55
2022-11-15T09:57:54.347Z,16.77
2022-11-15T10:00:47.122Z,18.37
2022-11-15T10:02:16.963Z,17.53
2022-11-15T10:04:45.476Z,14.82
2022-11-15T10:07:25.835Z,14.10
2022-11-15T10:10:31.503Z,14.62
2022-11-15T10:12:57.626Z,14.26
2022-11-15T10:15:38.823Z,14.33
2022-11-15T10:18:46.103Z,14.63
2022-11-15T10:21:58.203Z,15.07
2022-11-15T10:24:29.098Z,15.25
2022-11-15T10:28:28.389Z,13.88
2022-11-15T10:31:01.393Z,12.80
2022-11-15T10:32:19.622Z,12.48
2022-11-15T10:34:52.880Z,13.82
2022-11-15T10:37:32.360Z,13.70
2022-11-15T10:38:55.111Z,13.57
2022-11-15T10:41:34.985Z,14.43
2022-11-15T10:44:28.221Z,14.00
2022-11-15T10:45:38.683Z,13.98
2022-11-15T10:46:57.685Z,14.18
2022-11-15T10:49:33.979Z,21.48
2022-11-15T10:52:04.070Z,15.73
2022-11-15T10:54:55.582Z,14.32
2022-11-15T10:56:08.684Z,15.63
2022-11-15T10:58:41.992Z,15.16
2022-11-15T11:02:37.817Z,15.55
2022-11-15T11:06:53.776Z,15.15
2022-11-15T11:08:17.408Z,14.82
2022-11-15T11:09:44.145Z,14.80
2022-11-15T11:12:15.175Z,15.05
2022-11-15T11:14:46.483Z,14.53
2022-11-15T11:17:39.051Z,16.27
2022-11-15T11:22:03.463Z,15.38
2022-11-15T11:23:17.216Z,15.43
2022-11-15T11:26:23.211Z,15.87
2022-11-15T11:27:38.419Z,15.05
2022-11-15T11:30:41.936Z,14.78
2022-11-15T11:33:50.647Z,15.67
2022-11-15T11:36:52.394Z,17.20
2022-11-15T11:41:21.498Z,16.20
2022-11-15T11:44:09.901Z,15.80
2022-11-15T11:46:57.355Z,14.63
2022-11-15T11:49:54.907Z,14.00
2022-11-15T11:54:13.478Z,14.82
2022-11-15T11:57:01.611Z,13.77
2022-11-15T12:02:33.058Z,13.77
2022-11-15T12:05:20.979Z,13.00
2022-11-15T12:08:31.596Z,15.30
2022-11-15T12:09:53.360Z,15.80
2022-11-15T12:14:10.872Z,15.67
2022-11-15T12:16:41.231Z,15.00
2022-11-15T12:19:05.760Z,15.28
2022-11-15T12:21:50.116Z,16.02
2022-11-15T12:24:28.596Z,16.75
2022-11-15T12:25:45.232Z,17.87
2022-11-15T12:28:58.651Z,17.22
2022-11-15T12:32:53.667Z,15.30
2022-11-15T12:35:39.682Z,15.15
2022-11-15T12:38:12.705Z,16.55
2022-11-15T12:41:18.051Z,19.02
2022-11-15T12:44:00.180Z,16.17
2022-11-15T12:47:04.626Z,15.58
2022-11-15T12:49:43.118Z,17.95
2022-11-15T12:52:16.239Z,18.60
2022-11-15T12:54:57.409Z,19.22
2022-11-15T12:57:35.522Z,16.97
2022-11-15T12:58:59.653Z,17.13
2022-11-15T13:01:43.138Z,17.05
2022-11-15T13:04:15.986Z,17.72
2022-11-15T13:08:10.037Z,15.95
2022-11-15T13:10:58.109Z,16.18
2022-11-15T13:13:45.785Z,15.55
2022-11-15T13:16:21.278Z,16.20
2022-11-15T13:18:55.810Z,15.65
2022-11-15T13:21:45.365Z,16.23
2022-11-15T13:23:23.612Z,15.57
2022-11-15T13:26:05.060Z,15.12
2022-11-15T13:28:40.421Z,16.48
2022-11-15T13:31:16.844Z,15.28
2022-11-15T13:33:41.545Z,15.97
2022-11-15T13:36:22.616Z,16.40
2022-11-15T13:38:57.651Z,15.92
2022-11-15T13:41:50.683Z,17.72
2022-11-15T13:44:27.013Z,16.60
2022-11-15T13:45:36.477Z,15.17
2022-11-15T13:46:45.697Z,17.13
2022-11-15T13:49:12.464Z,16.08
2022-11-15T13:51:51.975Z,15.13
2022-11-15T13:53:04.897Z,15.33
2022-11-15T13:54:19.986Z,15.17
2022-11-15T13:55:33.074Z,15.43
2022-11-15T13:58:24.360Z,14.83
2022-11-15T14:01:00.884Z,16.15
2022-11-15T14:03:38.981Z,16.30
2022-11-15T14:06:15.676Z,17.47
2022-11-15T14:09:01.926Z,16.97
2022-11-15T14:13:31.580Z,17.35
2022-11-15T14:17:35.136Z,16.00
2022-11-15T14:20:05.446Z,16.68
2022-11-15T14:22:34.064Z,16.75
2022-11-15T14:25:19.492Z,18.47
2022-11-15T14:28:12.736Z,19.63
2022-11-15T14:29:24.445Z,18.70
2022-11-15T14:31:48.353Z,18.15
2022-11-15T14:32:56.925Z,17.97
2022-11-15T14:35:24.188Z,19.32
2022-11-15T14:36:32.882Z,19.25
2022-11-15T14:38:46.671Z,17.37
2022-11-15T14:42:39.142Z,19.93
2022-11-15T14:45:24.840Z,18.93
2022-11-15T14:46:33.732Z,19.90
2022-11-15T14:48:58.933Z,18.05
2022-11-15T14:51:34.473Z,18.80
2022-11-15T14:54:06.367Z,17.42
2022-11-15T14:56:39.331Z,17.88
2022-11-15T14:59:03.161Z,17.70
2022-11-15T15:00:13.919Z,18.20
2022-11-15T15:01:26.211Z,17.77
2022-11-15T15:03:52.631Z,18.73
2022-11-15T15:05:04.655Z,19.35
2022-11-15T15:07:30.473Z,20.47
2022-11-15T15:10:24.481Z,19.67
2022-11-15T15:12:49.968Z,20.87
2022-11-15T15:15:19.810Z,22.35
2022-11-15T15:17:45.348Z,18.83
2022-11-15T15:20:10.912Z,20.02
2022-11-15T15:21:36.482Z,20.85
2022-11-15T15:23:57.807Z,21.12
2022-11-15T15:25:35.238Z,19.42
2022-11-15T15:26:45.425Z,20.50
2022-11-15T15:29:11.870Z,20.30
2022-11-15T15:31:39.673Z,19.60
2022-11-15T15:32:52.663Z,20.46
2022-11-15T15:35:19.942Z,19.73
2022-11-15T20:25:50.675Z,25.80
2022-11-15T20:27:00.613Z,21.07
2022-11-15T20:29:25.504Z,17.32
2022-11-15T20:31:49.237Z,21.73
2022-11-15T20:32:58.100Z,18.57
2022-11-15T20:34:07.272Z,16.95
2022-11-15T20:36:31.766Z,15.83
2022-11-15T20:37:41.440Z,16.83
2022-11-15T20:38:52.197Z,16.85
2022-11-15T20:41:10.212Z,17.60
2022-11-15T20:43:34.038Z,19.20
2022-11-15T20:45:58.478Z,19.67
2022-11-15T20:48:24.501Z,20.45
2022-11-15T20:50:48.482Z,20.93
2022-11-15T20:53:15.521Z,21.08
2022-11-15T20:55:42.104Z,21.10
2022-11-15T20:56:51.383Z,20.52
2022-11-15T20:59:15.365Z,20.43
2022-11-15T21:01:41.467Z,21.02
2022-11-15T21:04:07.167Z,21.80
2022-11-15T21:05:17.345Z,21.30
2022-11-15T21:07:43.000Z,21.38
2022-11-15T21:09:12.658Z,20.80
2022-11-15T21:10:40.079Z,20.65
2022-11-15T21:13:22.491Z,20.75
2022-11-15T21:14:31.124Z,20.58
2022-11-15T21:15:40.000Z,20.03
2022-11-15T21:16:49.969Z,21.22
2022-11-15T21:19:14.581Z,21.47
2022-11-15T21:21:42.195Z,21.14
2022-11-15T21:24:08.940Z,21.02
2022-11-15T21:26:34.078Z,20.43
2022-11-15T21:28:57.830Z,19.67
2022-11-15T21:30:08.545Z,20.23
2022-11-15T21:32:33.654Z,20.67
2022-11-15T21:33:42.992Z,20.75
2022-11-15T21:34:54.942Z,19.50
2022-11-15T21:37:18.914Z,20.48
2022-11-15T21:38:29.119Z,20.15
2022-11-15T21:40:54.885Z,19.23
2022-11-15T21:42:04.878Z,21.05
2022-11-15T21:43:15.626Z,20.55
2022-11-15T21:45:39.308Z,21.32
2022-11-15T21:46:48.296Z,20.05
2022-11-15T21:49:12.693Z,19.58
2022-11-15T21:50:21.572Z,21.33
2022-11-15T21:51:31.410Z,20.65
2022-11-15T21:53:57.270Z,20.50
2022-11-15T21:56:25.038Z,20.12
2022-11-15T21:57:33.787Z,20.24
2022-11-15T22:00:37.957Z,19.77
2022-11-15T22:03:20.421Z,20.80
2022-11-15T22:04:29.957Z,21.25
2022-11-15T22:06:54.294Z,21.07
2022-11-15T22:08:05.049Z,21.93
2022-11-15T22:09:16.446Z,21.30
2022-11-15T22:11:40.812Z,21.75
2022-11-15T22:14:06.585Z,22.78
2022-11-15T22:16:31.403Z,22.52
2022-11-15T22:19:13.976Z,22.58
2022-11-15T22:21:42.211Z,23.75
2022-11-15T22:24:09.309Z,22.85
2022-11-15T22:25:19.595Z,21.10
2022-11-15T22:27:45.170Z,21.88
